Time;durP1;ratioP1;P1;durP2;ratioP2;P2;SDS_P1;SDS_P2;PMS_P1;PMS_P2;Temp;Humidity;BMP_temperature;BMP_pressure;BME280_temperature;BME280_humidity;BME280_pressure;Samples;Min_cycle;Max_cycle;Signal;HPM_P1;HPM_P2
2022/03/08 00:02:22;;;;;;;1.48;1.38;;;20.40;40.60;;;;;;5084365;28;43450;-61
2022/03/08 00:04:50;;;;;;;1.00;1.00;;;20.30;40.50;;;;;;5085663;27;43589;-62
2022/03/08 00:07:17;;;;;;;1.33;1.23;;;20.30;40.50;;;;;;5085320;27;44058;-61
2022/03/08 00:09:45;;;;;;;1.30;1.25;;;20.30;40.60;;;;;;5085773;27;43710;-62
2022/03/08 00:12:12;;;;;;;1.10;1.10;;;20.30;40.50;;;;;;5085535;27;43541;-62
2022/03/08 00:14:40;;;;;;;1.30;1.20;;;20.30;40.60;;;;;;5065674;28;43606;-62
2022/03/08 00:17:12;;;;;;;1.30;1.20;;;20.20;40.50;;;;;;5082833;28;43795;-62
2022/03/08 00:19:39;;;;;;;1.25;1.20;;;20.20;40.40;;;;;;5083945;28;43518;-61
2022/03/08 00:22:07;;;;;;;1.05;1.00;;;20.20;40.50;;;;;;5085463;28;43506;-62
2022/03/08 00:24:35;;;;;;;1.13;1.13;;;20.20;40.50;;;;;;5085710;27;43454;-62
2022/03/08 00:27:02;;;;;;;1.48;1.38;;;20.20;40.60;;;;;;5084138;28;44766;-62
2022/03/08 00:29:30;;;;;;;1.40;1.30;;;20.10;40.60;;;;;;5084092;28;43447;-62
2022/03/08 00:31:57;;;;;;;1.10;1.10;;;20.10;40.60;;;;;;5085304;27;43497;-62
2022/03/08 00:34:25;;;;;;;1.23;1.13;;;20.10;40.50;;;;;;5085591;27;43516;-62
2022/03/08 00:36:52;;;;;;;1.02;1.02;;;20.10;40.60;;;;;;5082410;28;44957;-62
2022/03/08 00:39:20;;;;;;;1.27;1.20;;;20.10;40.50;;;;;;5084538;28;43374;-62
2022/03/08 00:41:47;;;;;;;1.42;1.33;;;20.10;40.60;;;;;;5084200;28;43499;-62
2022/03/08 00:44:15;;;;;;;1.55;1.15;;;20.10;40.50;;;;;;5066034;28;43500;-63
2022/03/08 00:46:42;;;;;;;1.15;1.15;;;20.00;40.60;;;;;;5080405;28;43831;-62
2022/03/08 00:49:10;;;;;;;1.20;1.10;;;20.00;40.60;;;;;;5083480;28;43510;-62
2022/03/08 00:51:38;;;;;;;1.20;1.20;;;20.00;40.60;;;;;;5082289;28;43420;-62
2022/03/08 00:54:06;;;;;;;1.55;1.00;;;20.00;40.60;;;;;;5083191;28;43458;-62
2022/03/08 00:56:34;;;;;;;1.73;1.55;;;20.00;40.60;;;;;;5085066;27;45073;-61
2022/03/08 00:59:01;;;;;;;1.45;1.35;;;20.00;40.60;;;;;;5084806;27;43466;-62
2022/03/08 01:01:29;;;;;;;1.30;1.20;;;19.90;40.40;;;;;;5065068;28;43414;-62
2022/03/08 01:03:57;;;;;;;1.38;1.27;;;20.00;40.60;;;;;;5083420;28;43681;-62
2022/03/08 01:06:25;;;;;;;1.42;1.33;;;19.90;40.50;;;;;;5083207;27;44948;-62
2022/03/08 01:08:53;;;;;;;1.48;1.38;;;19.90;40.60;;;;;;5080806;28;43999;-61
2022/03/08 01:11:24;;;;;;;1.25;1.23;;;19.90;40.50;;;;;;5082823;28;43414;-62
2022/03/08 01:13:54;;;;;;;1.17;1.17;;;19.90;40.60;;;;;;5082959;28;44067;-62
2022/03/08 01:16:21;;;;;;;1.27;1.20;;;19.90;40.60;;;;;;5084586;28;44342;-62
2022/03/08 01:18:49;;;;;;;1.33;1.23;;;19.90;40.50;;;;;;5084101;27;43759;-62
2022/03/08 01:21:17;;;;;;;1.00;1.00;;;19.90;40.50;;;;;;5084626;27;43476;-62
2022/03/08 01:23:44;;;;;;;1.40;1.30;;;19.80;40.50;;;;;;5076455;28;43474;-62
2022/03/08 01:26:12;;;;;;;1.10;1.10;;;19.80;40.50;;;;;;5084205;27;43853;-62
2022/03/08 01:28:40;;;;;;;1.33;1.23;;;19.80;40.50;;;;;;5084116;27;43552;-62
2022/03/08 01:31:08;;;;;;;1.70;1.20;;;19.70;40.60;;;;;;5083886;27;43492;-61
2022/03/08 01:33:35;;;;;;;1.30;1.20;;;19.70;40.60;;;;;;5084441;27;43489;-62
2022/03/08 01:36:03;;;;;;;0.90;0.90;;;19.70;40.60;;;;;;5084153;27;44851;-62
2022/03/08 01:38:31;;;;;;;1.20;1.10;;;19.70;40.60;;;;;;5083947;27;43945;-62
2022/03/08 01:40:59;;;;;;;1.17;1.00;;;19.70;40.60;;;;;;5083273;28;43970;-62
2022/03/08 01:43:29;;;;;;;1.13;1.10;;;19.70;40.60;;;;;;5078397;28;44117;-62
2022/03/08 01:45:56;;;;;;;1.17;1.10;;;19.70;40.60;;;;;;5084110;27;44764;-62
2022/03/08 01:48:24;;;;;;;1.35;1.27;;;19.60;40.60;;;;;;5084024;27;43704;-62
2022/03/08 01:50:52;;;;;;;0.88;0.88;;;19.60;40.50;;;;;;5084006;28;43558;-62
2022/03/08 01:53:20;;;;;;;1.20;1.20;;;19.60;40.50;;;;;;5084218;27;43516;-62
2022/03/08 01:55:48;;;;;;;1.10;1.10;;;19.60;40.50;;;;;;5083388;28;44964;-62
2022/03/08 01:58:17;;;;;;;1.20;1.10;;;19.60;40.50;;;;;;5083908;27;43806;-62
2022/03/08 02:00:44;;;;;;;1.25;1.15;;;19.60;40.60;;;;;;5075373;28;43497;-62
2022/03/08 02:03:12;;;;;;;1.02;1.02;;;19.60;40.50;;;;;;5084050;27;43611;-62
2022/03/08 02:05:40;;;;;;;0.98;0.98;;;19.60;40.60;;;;;;5083648;27;44319;-62
2022/03/08 02:08:07;;;;;;;1.10;1.10;;;19.60;40.50;;;;;;5083525;27;43440;-62
2022/03/08 02:10:35;;;;;;;1.30;1.20;;;19.60;40.50;;;;;;5081598;28;43525;-62
2022/03/08 02:13:02;;;;;;;1.00;1.00;;;19.50;40.50;;;;;;5083487;28;43631;-62
2022/03/08 02:15:30;;;;;;;1.10;1.10;;;19.50;40.50;;;;;;5083308;28;44946;-62
2022/03/08 02:18:00;;;;;;;1.17;1.10;;;19.50;40.50;;;;;;5082932;27;43958;-62
2022/03/08 02:20:28;;;;;;;1.00;1.00;;;19.50;40.60;;;;;;5083778;27;43472;-62
2022/03/08 02:22:56;;;;;;;1.42;1.33;;;19.40;40.50;;;;;;5083755;27;43462;-62
2022/03/08 02:25:25;;;;;;;1.02;1.02;;;19.40;40.50;;;;;;5082099;28;43806;-62
2022/03/08 02:27:54;;;;;;;1.13;1.08;;;19.40;40.60;;;;;;5083343;27;43383;-62
2022/03/08 02:30:23;;;;;;;1.38;1.15;;;19.40;40.60;;;;;;5083109;28;43384;-61
2022/03/08 02:32:51;;;;;;;0.98;0.98;;;19.40;40.60;;;;;;5083516;27;43483;-62
2022/03/08 02:35:23;;;;;;;0.90;0.90;;;19.40;40.50;;;;;;5083376;27;43559;-62
2022/03/08 02:37:56;;;;;;;1.00;1.00;;;19.40;40.50;;;;;;5081371;28;43432;-62
2022/03/08 02:40:26;;;;;;;1.00;1.00;;;19.40;40.60;;;;;;5080530;28;43428;-62
2022/03/08 02:42:53;;;;;;;1.15;1.05;;;19.30;40.50;;;;;;5083312;27;43627;-62
2022/03/08 02:45:21;;;;;;;0.93;0.93;;;19.30;40.50;;;;;;5083219;27;43787;-62
2022/03/08 02:47:49;;;;;;;0.85;0.85;;;19.30;40.40;;;;;;5082401;27;44318;-62
2022/03/08 02:50:17;;;;;;;1.35;1.25;;;19.30;40.60;;;;;;5083451;27;43485;-62
2022/03/08 02:52:48;;;;;;;1.27;1.17;;;19.30;40.50;;;;;;5083453;27;43450;-62
2022/03/08 02:55:15;;;;;;;0.93;0.93;;;19.30;40.50;;;;;;5082888;27;44661;-62
2022/03/08 02:57:43;;;;;;;1.00;1.00;;;19.30;40.60;;;;;;5080686;28;43507;-62
2022/03/08 03:00:13;;;;;;;1.08;1.08;;;19.20;40.60;;;;;;5083279;27;43430;-62
2022/03/08 03:02:40;;;;;;;0.87;0.87;;;19.20;40.50;;;;;;5080789;27;43517;-62
2022/03/08 03:05:09;;;;;;;1.20;1.13;;;19.20;40.50;;;;;;5082996;27;44096;-62
2022/03/08 03:07:38;;;;;;;1.00;1.00;;;19.20;40.40;;;;;;5077893;28;44054;-62
2022/03/08 03:10:08;;;;;;;0.82;0.82;;;19.20;40.50;;;;;;5083036;27;43487;-62
2022/03/08 03:12:35;;;;;;;0.95;0.95;;;19.20;40.60;;;;;;5082809;27;43532;-62
2022/03/08 03:15:05;;;;;;;1.10;1.10;;;19.20;40.60;;;;;;5082313;27;44419;-62
2022/03/08 03:17:33;;;;;;;1.20;1.10;;;19.10;40.50;;;;;;5081889;28;43568;-62
2022/03/08 03:20:01;;;;;;;2.05;1.27;;;19.10;40.50;;;;;;5080179;27;43428;-62
2022/03/08 03:22:28;;;;;;;1.00;1.00;;;19.10;40.50;;;;;;5082737;27;44247;-62
2022/03/08 03:24:55;;;;;;;1.20;1.10;;;19.10;40.50;;;;;;5079954;27;44042;-62
2022/03/08 03:27:23;;;;;;;1.00;1.00;;;19.10;40.50;;;;;;5082758;27;43723;-62
2022/03/08 03:29:50;;;;;;;1.00;1.00;;;19.10;40.50;;;;;;5085567;27;43420;-62
2022/03/08 03:32:19;;;;;;;1.15;1.08;;;19.10;40.50;;;;;;5077353;28;43521;-62
2022/03/08 03:34:46;;;;;;;1.00;1.00;;;19.10;40.60;;;;;;5086048;27;44033;-61
2022/03/08 03:37:14;;;;;;;1.10;1.10;;;19.10;40.50;;;;;;5086369;28;43996;-62
2022/03/08 03:39:41;;;;;;;1.13;1.10;;;19.00;40.50;;;;;;5084785;28;43502;-62
2022/03/08 03:42:09;;;;;;;1.10;1.10;;;19.00;40.50;;;;;;5086099;27;43483;-62
2022/03/08 03:44:36;;;;;;;1.17;1.17;;;19.00;40.60;;;;;;5085900;27;43818;-62
2022/03/08 03:47:04;;;;;;;1.00;1.00;;;19.00;40.60;;;;;;5086186;27;44140;-61
2022/03/08 03:49:32;;;;;;;1.20;1.20;;;19.00;40.60;;;;;;5085928;27;43455;-62
2022/03/08 03:52:00;;;;;;;1.10;1.10;;;19.00;40.60;;;;;;5086057;27;43457;-62
2022/03/08 03:54:28;;;;;;;1.15;1.10;;;19.00;40.60;;;;;;5082501;28;43818;-62
2022/03/08 03:56:55;;;;;;;1.05;1.02;;;18.90;40.50;;;;;;5085936;27;43984;-62
2022/03/08 03:59:22;;;;;;;1.63;1.52;;;18.90;40.60;;;;;;5085897;27;43346;-62
2022/03/08 04:01:50;;;;;;;1.40;1.30;;;18.90;40.50;;;;;;5085622;27;43573;-62
2022/03/08 04:04:18;;;;;;;1.52;1.42;;;18.90;40.50;;;;;;5083319;28;44174;-62
2022/03/08 04:06:45;;;;;;;1.40;1.30;;;18.90;40.60;;;;;;5085368;27;43388;-62
2022/03/08 04:09:13;;;;;;;1.50;1.40;;;18.90;40.60;;;;;;5085403;27;43490;-62
2022/03/08 04:11:40;;;;;;;1.48;1.38;;;18.90;40.60;;;;;;5085828;27;43424;-62
2022/03/08 04:14:08;;;;;;;1.50;1.40;;;18.90;40.60;;;;;;5083255;28;43801;-61
2022/03/08 04:16:35;;;;;;;1.20;1.20;;;18.80;40.50;;;;;;5085547;27;43380;-61
2022/03/08 04:19:03;;;;;;;1.52;1.42;;;18.80;40.60;;;;;;5085093;28;43425;-62
2022/03/08 04:21:30;;;;;;;1.70;1.60;;;18.80;40.60;;;;;;5085604;27;44068;-62
2022/03/08 04:23:59;;;;;;;1.33;1.30;;;18.80;40.60;;;;;;5084042;28;43901;-61
2022/03/08 04:26:26;;;;;;;1.60;1.50;;;18.80;40.50;;;;;;5082841;28;43482;-62
2022/03/08 04:28:54;;;;;;;1.50;1.40;;;18.70;40.50;;;;;;5085291;27;43376;-61
2022/03/08 04:31:21;;;;;;;1.45;1.35;;;18.70;40.50;;;;;;5084337;27;43455;-62
2022/03/08 04:33:49;;;;;;;1.75;1.65;;;18.70;40.60;;;;;;5083705;28;44309;-62
2022/03/08 04:36:16;;;;;;;1.40;1.40;;;18.70;40.60;;;;;;5082740;28;43431;-62
2022/03/08 04:38:44;;;;;;;1.67;1.58;;;18.70;40.60;;;;;;5082644;28;43452;-62
2022/03/08 04:41:11;;;;;;;1.48;1.38;;;18.70;40.60;;;;;;5084983;27;44081;-62
2022/03/08 04:43:39;;;;;;;1.77;1.65;;;18.70;40.60;;;;;;5079733;28;44701;-61
2022/03/08 04:46:07;;;;;;;1.60;1.50;;;18.70;40.60;;;;;;5082616;28;43667;-63
2022/03/08 04:48:34;;;;;;;1.60;1.50;;;18.70;40.60;;;;;;5085295;28;43401;-61
2022/03/08 04:51:01;;;;;;;1.60;1.50;;;18.60;40.50;;;;;;5082643;27;43473;-62
2022/03/08 04:53:29;;;;;;;1.55;1.45;;;18.60;40.60;;;;;;5080041;28;43787;-62
2022/03/08 04:55:56;;;;;;;1.80;1.70;;;18.60;40.50;;;;;;5081350;27;43437;-61
2022/03/08 04:58:24;;;;;;;1.73;1.63;;;18.60;40.60;;;;;;5085086;27;43461;-62
2022/03/08 05:00:52;;;;;;;1.60;1.50;;;18.60;40.50;;;;;;5082580;27;43637;-61
2022/03/08 05:03:19;;;;;;;1.60;1.50;;;18.60;40.60;;;;;;5081891;28;44902;-62
2022/03/08 05:05:47;;;;;;;1.65;1.55;;;18.60;40.50;;;;;;5084067;28;44203;-61
2022/03/08 05:08:15;;;;;;;1.70;1.60;;;18.60;40.60;;;;;;5084615;27;44102;-62
2022/03/08 05:10:42;;;;;;;1.80;1.70;;;18.50;40.50;;;;;;5084813;27;43516;-62
2022/03/08 05:13:10;;;;;;;2.00;1.90;;;18.60;40.60;;;;;;5080141;27;43812;-62
2022/03/08 05:15:37;;;;;;;1.88;1.77;;;18.50;40.50;;;;;;5080826;28;44798;-61
2022/03/08 05:18:05;;;;;;;1.70;1.60;;;18.50;40.60;;;;;;5084584;27;43585;-61
2022/03/08 05:20:33;;;;;;;1.92;1.80;;;18.50;40.60;;;;;;5084469;28;43516;-62
2022/03/08 05:23:00;;;;;;;1.80;1.70;;;18.50;40.60;;;;;;5080383;27;43757;-62
2022/03/08 05:25:28;;;;;;;2.00;1.80;;;18.40;40.50;;;;;;5083572;28;43436;-61
2022/03/08 05:27:55;;;;;;;1.80;1.67;;;18.50;40.60;;;;;;5076827;28;43510;-62
2022/03/08 05:30:23;;;;;;;2.00;1.80;;;18.40;40.60;;;;;;5083774;27;43550;-62
2022/03/08 05:32:51;;;;;;;1.90;1.80;;;18.40;40.60;;;;;;5084401;27;43744;-61
2022/03/08 05:35:19;;;;;;;1.95;1.85;;;18.40;40.50;;;;;;5084229;27;43420;-62
2022/03/08 05:37:46;;;;;;;1.80;1.70;;;18.40;40.60;;;;;;5077134;28;43514;-61
2022/03/08 05:40:14;;;;;;;1.80;1.70;;;18.40;40.50;;;;;;5084381;27;43530;-62
2022/03/08 05:42:43;;;;;;;1.80;1.70;;;18.40;40.60;;;;;;5083733;27;43798;-62
2022/03/08 05:45:12;;;;;;;1.88;1.77;;;18.40;40.60;;;;;;5083734;27;43519;-61
2022/03/08 05:47:40;;;;;;;1.83;1.73;;;18.30;40.60;;;;;;5084243;27;43521;-62
2022/03/08 05:50:10;;;;;;;2.08;1.90;;;18.40;40.60;;;;;;5084444;27;43620;-62
2022/03/08 05:52:37;;;;;;;2.15;1.95;;;18.30;40.50;;;;;;5082263;28;43945;-62
2022/03/08 05:55:06;;;;;;;1.98;1.88;;;18.30;40.60;;;;;;5084116;27;43482;-61
2022/03/08 05:57:33;;;;;;;1.95;1.80;;;18.30;40.60;;;;;;5084699;27;43424;-62
2022/03/08 06:00:03;;;;;;;2.00;1.90;;;18.30;40.60;;;;;;5082927;28;43514;-62
2022/03/08 06:02:37;;;;;;;2.85;2.20;;;18.30;40.60;;;;;;5084040;27;44718;-62
2022/03/08 06:05:06;;;;;;;2.13;2.00;;;18.20;40.60;;;;;;5083678;27;43534;-62
2022/03/08 06:07:33;;;;;;;2.05;1.80;;;18.20;40.60;;;;;;5081907;27;43475;-62
2022/03/08 06:10:01;;;;;;;2.30;2.10;;;18.20;40.60;;;;;;5065389;28;43685;-63
2022/03/08 06:12:28;;;;;;;2.30;2.10;;;18.20;40.60;;;;;;5082147;28;43841;-62
2022/03/08 06:14:56;;;;;;;2.20;2.10;;;18.20;40.60;;;;;;5083538;27;43520;-62
2022/03/08 06:17:24;;;;;;;2.20;2.00;;;18.20;40.60;;;;;;5083821;27;43382;-62
2022/03/08 06:19:51;;;;;;;2.42;2.00;;;18.20;40.60;;;;;;5083238;27;44027;-62
2022/03/08 06:22:19;;;;;;;2.20;2.00;;;18.20;40.60;;;;;;5082734;28;44679;-62
2022/03/08 06:24:46;;;;;;;2.42;2.28;;;18.10;40.60;;;;;;5083190;27;43431;-61
2022/03/08 06:27:14;;;;;;;2.00;1.90;;;18.10;40.60;;;;;;5081340;27;43385;-61
2022/03/08 06:29:41;;;;;;;2.08;1.98;;;18.10;40.60;;;;;;5083660;27;43443;-61
2022/03/08 06:32:09;;;;;;;2.40;2.22;;;18.10;40.60;;;;;;5080568;28;44717;-62
2022/03/08 06:34:36;;;;;;;2.20;2.10;;;18.10;40.60;;;;;;5083357;28;44038;-61
2022/03/08 06:37:04;;;;;;;2.42;2.20;;;18.10;40.60;;;;;;5076138;27;43350;-61
2022/03/08 06:39:32;;;;;;;2.30;2.10;;;18.10;40.60;;;;;;5083511;28;43520;-62
2022/03/08 06:41:59;;;;;;;2.38;2.25;;;18.10;40.60;;;;;;5083362;27;44710;-62
2022/03/08 06:44:26;;;;;;;2.20;2.10;;;18.10;40.60;;;;;;5080541;28;43410;-62
2022/03/08 06:46:54;;;;;;;2.58;2.15;;;18.10;40.60;;;;;;5083633;27;43418;-61
2022/03/08 06:49:22;;;;;;;2.33;2.03;;;18.00;40.60;;;;;;5081619;27;43584;-61
2022/03/08 06:51:49;;;;;;;2.45;2.10;;;18.00;40.70;;;;;;5078321;28;44780;-62
2022/03/08 06:54:18;;;;;;;2.30;2.10;;;18.00;40.70;;;;;;5082312;27;43674;-61
2022/03/08 06:56:45;;;;;;;2.40;2.20;;;18.00;40.80;;;;;;5080899;27;43483;-62
2022/03/08 06:59:13;;;;;;;2.17;2.08;;;17.90;40.70;;;;;;5083031;27;43976;-61
2022/03/08 07:01:40;;;;;;;2.42;2.10;;;18.00;40.80;;;;;;5083031;27;44683;-62
2022/03/08 07:04:08;;;;;;;2.53;2.33;;;17.90;40.80;;;;;;5085893;27;43669;-61
2022/03/08 07:06:36;;;;;;;2.10;2.00;;;18.00;40.80;;;;;;5085448;28;43468;-62
2022/03/08 07:09:04;;;;;;;2.28;2.08;;;17.90;40.80;;;;;;5086312;27;43620;-61
2022/03/08 07:11:31;;;;;;;2.13;2.03;;;17.90;40.70;;;;;;5086388;27;44084;-61
2022/03/08 07:13:58;;;;;;;2.40;2.20;;;17.90;40.80;;;;;;5085607;27;43693;-62
2022/03/08 07:16:26;;;;;;;2.20;2.00;;;18.00;40.80;;;;;;5086779;27;43441;-62
2022/03/08 07:18:54;;;;;;;2.15;2.03;;;18.00;40.80;;;;;;5085870;28;43620;-62
2022/03/08 07:21:22;;;;;;;2.42;2.25;;;18.00;40.80;;;;;;5086514;27;44124;-62
2022/03/08 07:23:49;;;;;;;2.33;2.13;;;18.00;40.80;;;;;;5085975;27;43441;-61
2022/03/08 07:26:17;;;;;;;2.08;1.98;;;17.90;41.00;;;;;;5085986;27;43534;-62
2022/03/08 07:28:44;;;;;;;2.58;2.20;;;17.90;40.90;;;;;;5085964;27;43515;-61
2022/03/08 07:31:12;;;;;;;2.17;2.08;;;17.90;40.90;;;;;;5083999;28;44663;-61
2022/03/08 07:33:41;;;;;;;2.00;1.90;;;18.00;40.90;;;;;;5083631;27;44137;-61
2022/03/08 07:36:08;;;;;;;2.22;2.08;;;18.00;41.00;;;;;;5085774;27;43486;-62
2022/03/08 07:38:36;;;;;;;2.20;2.10;;;18.00;41.00;;;;;;5085719;27;43593;-62
2022/03/08 07:41:05;;;;;;;2.30;2.10;;;18.00;40.90;;;;;;5082809;28;44067;-61
2022/03/08 07:43:34;;;;;;;2.28;2.03;;;18.00;40.90;;;;;;5083563;27;43953;-62
2022/03/08 07:46:04;;;;;;;2.40;2.00;;;18.00;41.00;;;;;;5086381;27;43484;-62
2022/03/08 07:48:32;;;;;;;2.20;2.00;;;18.00;41.00;;;;;;5084038;27;43638;-61
2022/03/08 07:50:59;;;;;;;2.08;1.88;;;18.00;40.90;;;;;;5085256;28;44711;-61
2022/03/08 07:53:27;;;;;;;2.40;2.20;;;18.00;41.00;;;;;;5078190;28;43935;-61
2022/03/08 07:55:55;;;;;;;2.45;2.25;;;18.10;41.00;;;;;;5083243;27;43484;-60
2022/03/08 07:58:22;;;;;;;2.30;2.10;;;18.00;41.00;;;;;;5084608;27;43488;-62
2022/03/08 08:00:50;;;;;;;2.50;2.30;;;18.10;41.00;;;;;;5084831;28;43795;-62
2022/03/08 08:03:18;;;;;;;2.30;2.10;;;18.10;41.00;;;;;;5083553;28;43439;-61
2022/03/08 08:05:45;;;;;;;2.15;1.95;;;18.10;41.00;;;;;;5082989;27;43515;-61
2022/03/08 08:08:13;;;;;;;2.30;2.20;;;18.20;41.00;;;;;;5084031;27;43434;-62
2022/03/08 08:10:40;;;;;;;3.10;2.35;;;18.20;40.90;;;;;;5084826;28;43786;-62
2022/03/08 08:13:08;;;;;;;2.17;2.00;;;18.20;40.90;;;;;;5079512;28;43749;-61
2022/03/08 08:15:37;;;;;;;2.33;2.13;;;18.20;40.90;;;;;;5082514;27;43476;-61
2022/03/08 08:18:10;;;;;;;2.03;1.92;;;18.20;40.90;;;;;;5082963;27;43748;-62
2022/03/08 08:20:37;;;;;;;2.17;2.00;;;18.20;40.90;;;;;;5083901;28;44846;-61
2022/03/08 08:23:05;;;;;;;2.10;2.00;;;18.30;40.90;;;;;;5082275;28;43727;-61
2022/03/08 08:25:32;;;;;;;2.00;1.90;;;18.30;40.90;;;;;;5083035;27;43569;-60
2022/03/08 08:28:00;;;;;;;2.10;2.00;;;18.30;40.80;;;;;;5085620;27;43906;-62
2022/03/08 08:30:27;;;;;;;2.28;2.08;;;18.30;40.90;;;;;;5085010;27;44952;-62
2022/03/08 08:32:55;;;;;;;2.17;2.08;;;18.30;41.00;;;;;;5085356;27;43469;-61
2022/03/08 08:35:22;;;;;;;3.42;2.53;;;18.40;40.90;;;;;;5085235;27;43406;-62
2022/03/08 08:37:50;;;;;;;2.25;2.15;;;18.40;41.10;;;;;;5079348;27;43536;-60
2022/03/08 08:40:17;;;;;;;3.13;2.65;;;18.40;41.00;;;;;;5081312;27;44656;-62
2022/03/08 08:42:45;;;;;;;2.40;2.17;;;18.50;41.10;;;;;;5084399;27;43495;-62
2022/03/08 08:45:14;;;;;;;2.20;2.00;;;18.60;41.00;;;;;;5085518;27;43501;-63
2022/03/08 08:47:41;;;;;;;3.10;2.22;;;18.70;41.10;;;;;;5079396;27;44105;-61
2022/03/08 08:50:09;;;;;;;3.63;2.20;;;18.80;41.00;;;;;;5083913;27;43846;-62
2022/03/08 08:52:36;;;;;;;2.10;2.00;;;18.90;41.00;;;;;;5084330;27;43709;-61
2022/03/08 08:55:04;;;;;;;2.88;2.30;;;19.00;40.80;;;;;;5083742;27;43425;-62
2022/03/08 08:57:37;;;;;;;2.33;2.13;;;19.10;40.80;;;;;;5085827;27;43396;-62
2022/03/08 09:00:07;;;;;;;2.30;2.00;;;19.20;40.60;;;;;;5079636;27;44972;-61
2022/03/08 09:02:35;;;;;;;2.10;1.98;;;19.30;40.60;;;;;;5081004;27;43900;-62
2022/03/08 09:05:03;;;;;;;2.20;2.00;;;19.40;40.50;;;;;;5081903;27;43398;-62
2022/03/08 09:07:31;;;;;;;2.17;1.98;;;19.50;40.30;;;;;;5081575;27;43769;-62
2022/03/08 09:09:58;;;;;;;1.90;1.80;;;19.60;40.30;;;;;;5080207;27;44237;-62
2022/03/08 09:12:25;;;;;;;2.13;2.03;;;19.70;40.20;;;;;;5081990;27;43693;-61
2022/03/08 09:14:53;;;;;;;2.42;1.90;;;19.80;40.00;;;;;;5081818;27;43584;-62
2022/03/08 09:17:21;;;;;;;2.17;1.83;;;19.90;40.00;;;;;;5083724;27;43442;-61
2022/03/08 09:19:49;;;;;;;2.08;1.95;;;20.00;39.70;;;;;;5083648;27;43804;-62
2022/03/08 09:22:16;;;;;;;2.15;1.92;;;20.10;39.80;;;;;;5083451;27;43405;-63
2022/03/08 09:24:44;;;;;;;1.77;1.67;;;20.30;39.70;;;;;;5083904;27;43464;-63
2022/03/08 09:27:12;;;;;;;3.38;2.15;;;20.50;39.50;;;;;;5080307;27;43495;-63
2022/03/08 09:29:45;;;;;;;2.05;1.90;;;20.50;39.30;;;;;;5080882;27;44659;-63
2022/03/08 09:32:13;;;;;;;2.13;1.90;;;20.70;39.20;;;;;;5084371;27;43670;-62
2022/03/08 09:34:40;;;;;;;2.08;1.90;;;20.80;39.00;;;;;;5081255;27;43472;-62
2022/03/08 09:37:08;;;;;;;2.15;2.00;;;20.90;39.00;;;;;;5078876;27;43399;-62
2022/03/08 09:39:36;;;;;;;1.65;1.55;;;21.00;38.80;;;;;;5080848;27;43791;-62
2022/03/08 09:42:04;;;;;;;2.10;1.77;;;21.10;38.80;;;;;;5083314;27;43670;-62
2022/03/08 09:44:32;;;;;;;1.80;1.70;;;21.20;38.60;;;;;;5083244;27;43466;-63
2022/03/08 09:47:00;;;;;;;1.60;1.50;;;21.30;38.60;;;;;;5082284;27;43520;-61
2022/03/08 09:49:27;;;;;;;1.83;1.65;;;21.40;38.40;;;;;;5074373;27;44955;-61
2022/03/08 09:51:55;;;;;;;3.67;1.88;;;21.50;38.40;;;;;;5083426;27;44029;-61
2022/03/08 09:54:23;;;;;;;2.58;1.70;;;21.60;38.40;;;;;;5079227;27;43406;-61
2022/03/08 09:56:51;;;;;;;1.80;1.70;;;21.70;38.20;;;;;;5083476;27;43491;-62
2022/03/08 09:59:20;;;;;;;2.45;1.58;;;21.80;38.00;;;;;;5081202;27;43785;-61
2022/03/08 10:01:47;;;;;;;2.88;1.85;;;21.90;38.30;;;;;;5080179;27;44014;-61
2022/03/08 10:04:17;;;;;;;1.50;1.40;;;21.90;38.10;;;;;;5081260;27;43622;-61
2022/03/08 10:07:09;;;;;;;1.88;1.77;;;22.00;38.00;;;;;;5081651;27;43475;-62
2022/03/08 10:09:38;;;;;;;1.95;1.75;;;22.10;38.00;;;;;;5078434;27;43788;-61
2022/03/08 10:12:16;;;;;;;1.70;1.60;;;22.20;37.90;;;;;;5081137;27;43541;-62
2022/03/08 10:14:44;;;;;;;1.60;1.50;;;22.20;37.80;;;;;;5081937;27;43489;-61
2022/03/08 10:17:31;;;;;;;1.40;1.30;;;22.30;38.00;;;;;;5079628;27;43442;-63
2022/03/08 10:19:59;;;;;;;2.30;1.60;;;22.30;37.70;;;;;;5078794;27;43770;-62
2022/03/08 10:22:37;;;;;;;1.70;1.60;;;22.40;37.70;;;;;;5082798;27;43410;-62
2022/03/08 10:25:12;;;;;;;1.77;1.50;;;22.40;37.90;;;;;;5081108;27;43484;-61
2022/03/08 10:28:00;;;;;;;1.50;1.38;;;22.40;37.90;;;;;;5082141;27;43500;-63
2022/03/08 10:30:33;;;;;;;1.50;1.40;;;22.50;37.80;;;;;;5079224;27;44868;-61
2022/03/08 10:33:03;;;;;;;1.40;1.30;;;22.50;37.90;;;;;;5079633;27;43786;-62
2022/03/08 10:35:38;;;;;;;2.75;1.35;;;22.50;37.90;;;;;;5080841;27;43497;-62
2022/03/08 10:38:08;;;;;;;2.80;1.42;;;22.50;37.80;;;;;;5082373;27;44148;-62
2022/03/08 10:40:36;;;;;;;4.32;1.50;;;22.50;37.60;;;;;;5086340;27;44653;-61
2022/03/08 10:43:06;;;;;;;2.45;1.50;;;22.50;37.70;;;;;;5085941;27;43433;-61
2022/03/08 10:45:39;;;;;;;1.60;1.50;;;22.50;37.60;;;;;;5086462;27;43452;-62
2022/03/08 10:48:08;;;;;;;1.90;1.40;;;22.50;37.70;;;;;;5083361;27;43537;-62
2022/03/08 10:50:37;;;;;;;1.58;1.15;;;22.50;37.70;;;;;;5081067;27;44153;-61
2022/03/08 10:53:07;;;;;;;1.92;1.70;;;22.50;37.70;;;;;;5079446;27;43487;-61
2022/03/08 10:55:48;;;;;;;3.05;1.35;;;22.50;37.70;;;;;;5085749;27;43402;-62
2022/03/08 10:58:17;;;;;;;1.27;1.17;;;22.50;37.80;;;;;;5085255;27;43455;-62
2022/03/08 11:00:46;;;;;;;2.05;1.40;;;22.60;37.80;;;;;;5085648;27;44684;-61
2022/03/08 11:03:16;;;;;;;1.60;1.50;;;22.50;37.60;;;;;;5086159;27;43659;-61
2022/03/08 11:05:48;;;;;;;1.08;1.08;;;22.60;37.70;;;;;;5084877;27;43511;-61
2022/03/08 11:08:17;;;;;;;1.40;1.30;;;22.50;38.50;;;;;;5085457;27;43536;-62
2022/03/08 11:10:45;;;;;;;2.03;1.10;;;22.50;37.70;;;;;;5084302;27;44949;-61
2022/03/08 11:13:15;;;;;;;1.30;1.20;;;22.50;37.70;;;;;;5084387;27;44057;-62
2022/03/08 11:15:43;;;;;;;1.55;0.90;;;22.50;37.90;;;;;;5083577;27;43468;-62
2022/03/08 11:18:13;;;;;;;4.00;1.50;;;22.50;37.90;;;;;;5085161;27;43454;-62
2022/03/08 11:20:43;;;;;;;1.65;1.55;;;22.60;38.00;;;;;;5081260;27;43874;-62
2022/03/08 11:23:11;;;;;;;2.75;1.65;;;22.50;38.00;;;;;;5085077;27;43498;-61
2022/03/08 11:25:45;;;;;;;2.00;1.20;;;22.60;38.10;;;;;;5085336;27;43490;-62
2022/03/08 11:28:27;;;;;;;2.05;1.30;;;22.60;38.20;;;;;;5084218;27;43512;-62
2022/03/08 11:30:59;;;;;;;1.02;0.95;;;22.60;38.20;;;;;;5083529;27;44031;-61
2022/03/08 11:33:39;;;;;;;1.10;1.00;;;22.60;38.20;;;;;;5100027;27;43557;-62
2022/03/08 11:36:30;;;;;;;1.15;1.00;;;22.70;38.10;;;;;;5066368;27;43507;-61
2022/03/08 11:39:18;;;;;;;2.72;1.20;;;22.70;38.10;;;;;;5081462;27;43383;-61
2022/03/08 11:41:52;;;;;;;1.33;1.15;;;22.70;38.10;;;;;;5084589;27;43879;-62
2022/03/08 11:44:27;;;;;;;1.20;1.10;;;22.70;38.10;;;;;;5082664;27;43560;-62
2022/03/08 11:47:09;;;;;;;1.20;0.93;;;22.80;38.10;;;;;;5084197;27;43408;-61
2022/03/08 11:49:47;;;;;;;2.17;1.15;;;22.80;38.10;;;;;;5081424;27;43389;-61
2022/03/08 11:52:16;;;;;;;1.85;1.08;;;22.80;38.10;;;;;;5079643;27;43845;-63
2022/03/08 11:54:59;;;;;;;1.10;1.00;;;22.80;38.00;;;;;;5084417;27;43470;-62
2022/03/08 11:57:51;;;;;;;2.53;1.10;;;22.90;38.00;;;;;;5080366;27;43457;-63
2022/03/08 12:00:24;;;;;;;1.30;1.17;;;22.90;38.00;;;;;;5080060;27;43620;-61
2022/03/08 12:02:55;;;;;;;1.58;1.30;;;22.90;38.00;;;;;;5081850;27;44728;-62
2022/03/08 12:05:40;;;;;;;2.65;0.98;;;22.90;37.90;;;;;;5080655;27;43497;-61
2022/03/08 12:08:29;;;;;;;1.65;0.98;;;22.90;37.70;;;;;;5081931;27;43538;-62
2022/03/08 12:11:01;;;;;;;1.35;0.93;;;23.00;37.90;;;;;;5083932;27;43575;-62
2022/03/08 12:13:40;;;;;;;1.45;1.10;;;23.00;37.80;;;;;;5081169;27;44824;-62
2022/03/08 12:16:10;;;;;;;1.13;0.90;;;23.00;37.90;;;;;;5084295;27;43485;-62
2022/03/08 12:18:39;;;;;;;1.25;1.15;;;23.10;38.00;;;;;;5082914;27;43926;-63
2022/03/08 12:21:21;;;;;;;0.90;0.90;;;23.00;37.90;;;;;;5083858;27;43540;-62
2022/03/08 12:24:09;;;;;;;1.10;0.93;;;23.10;38.00;;;;;;5085011;27;44071;-62
2022/03/08 12:26:54;;;;;;;1.00;0.90;;;23.10;37.90;;;;;;5082364;27;43680;-61
2022/03/08 12:29:55;;;;;;;1.23;1.08;;;23.10;37.90;;;;;;5100972;27;43491;-62
2022/03/08 12:32:33;;;;;;;;;;;23.20;38.00;;;;;;5087606;27;43608;-62
2022/03/08 12:35:06;;;;;;;2.85;1.00;;;23.10;37.50;;;;;;5081169;27;43779;-62
2022/03/08 12:37:45;;;;;;;1.42;1.13;;;23.10;37.30;;;;;;5079879;27;44251;-63
2022/03/08 12:40:12;;;;;;;1.02;1.02;;;23.10;37.00;;;;;;5083454;27;43429;-62
2022/03/08 12:42:44;;;;;;;0.95;0.95;;;23.10;37.20;;;;;;5083834;27;43591;-63
2022/03/08 12:45:22;;;;;;;1.35;0.90;;;23.20;37.40;;;;;;5081392;27;43900;-62
2022/03/08 12:47:52;;;;;;;2.97;1.15;;;23.20;37.40;;;;;;5083652;27;43477;-62
2022/03/08 12:50:23;;;;;;;1.02;1.02;;;23.20;37.30;;;;;;5081807;27;43465;-62
2022/03/08 12:52:53;;;;;;;1.13;0.95;;;23.20;37.50;;;;;;5080727;27;43703;-62
2022/03/08 12:55:27;;;;;;;1.02;0.70;;;23.20;37.40;;;;;;5082903;27;44036;-62
2022/03/08 12:58:01;;;;;;;0.80;0.80;;;23.30;37.40;;;;;;5082303;27;43652;-62
2022/03/08 13:00:41;;;;;;;0.90;0.90;;;23.30;37.50;;;;;;5085888;27;43466;-62